createdAt,value
2018-10-21T00:02:01.434Z,13.55
2018-10-21T00:04:29.593Z,10.95
2018-10-21T00:06:57.683Z,12.13
2018-10-21T00:09:25.785Z,12.47
2018-10-21T00:11:53.932Z,11.80
2018-10-21T00:14:22.108Z,9.63
2018-10-21T00:16:50.240Z,14.90
2018-10-21T00:19:18.356Z,11.63
2018-10-21T00:21:46.488Z,12.10
2018-10-21T00:24:14.611Z,11.03
2018-10-21T00:26:42.708Z,17.85
2018-10-21T00:29:10.806Z,12.40
2018-10-21T00:31:38.915Z,11.20
2018-10-21T00:34:07.018Z,9.80
2018-10-21T00:36:35.109Z,12.05
2018-10-21T00:39:03.341Z,11.57
2018-10-21T00:41:31.445Z,12.18
2018-10-21T00:43:59.712Z,11.25
2018-10-21T00:46:27.807Z,12.82
2018-10-21T00:48:55.905Z,11.80
2018-10-21T00:51:24.036Z,14.07
2018-10-21T00:53:52.209Z,9.93
2018-10-21T00:56:20.295Z,12.30
2018-10-21T00:58:48.404Z,11.05
2018-10-21T01:01:16.726Z,12.53
2018-10-21T01:03:44.838Z,9.65
2018-10-21T01:06:12.933Z,11.10
2018-10-21T01:08:41.055Z,10.80
2018-10-21T01:11:09.140Z,16.57
2018-10-21T01:13:37.283Z,13.43
2018-10-21T01:16:05.499Z,13.95
2018-10-21T01:18:33.619Z,13.45
2018-10-21T01:21:01.781Z,13.05
2018-10-21T01:23:29.863Z,10.28
2018-10-21T01:25:57.953Z,13.08
2018-10-21T01:28:26.183Z,15.05
2018-10-21T01:30:54.315Z,10.80
2018-10-21T01:33:22.414Z,12.73
2018-10-21T01:35:50.515Z,12.40
2018-10-21T01:38:18.685Z,19.12
2018-10-21T01:40:47.780Z,16.57
2018-10-21T01:43:17.087Z,15.28
2018-10-21T01:45:45.380Z,16.00
2018-10-21T01:48:14.660Z,15.88
2018-10-21T01:50:42.855Z,12.85
2018-10-21T01:53:11.939Z,14.47
2018-10-21T01:55:40.044Z,12.03
2018-10-21T01:58:08.386Z,16.30
2018-10-21T02:00:36.767Z,13.10
2018-10-21T02:03:05.137Z,12.82
2018-10-21T02:05:33.604Z,16.15
2018-10-21T02:08:01.690Z,11.05
2018-10-21T02:10:29.795Z,12.78
2018-10-21T02:12:57.922Z,11.08
2018-10-21T02:15:26.106Z,11.65
2018-10-21T02:17:54.200Z,12.33
2018-10-21T02:20:22.907Z,12.45
2018-10-21T02:22:51.285Z,13.35
2018-10-21T02:25:19.407Z,12.28
2018-10-21T02:27:48.342Z,10.80
2018-10-21T02:30:17.728Z,10.72
2018-10-21T02:32:46.735Z,14.80
2018-10-21T02:35:15.528Z,15.25
2018-10-21T02:37:44.127Z,15.43
2018-10-21T02:41:27.504Z,16.48
2018-10-21T02:43:55.632Z,13.72
2018-10-21T02:46:24.309Z,10.45
2018-10-21T02:48:53.680Z,10.38
2018-10-21T02:51:21.845Z,11.83
2018-10-21T02:53:49.967Z,13.38
2018-10-21T02:56:18.182Z,13.95
2018-10-21T02:58:46.284Z,10.38
2018-10-21T03:01:14.399Z,14.78
2018-10-21T03:03:42.496Z,10.93
2018-10-21T03:06:10.617Z,14.85
2018-10-21T03:08:39.384Z,11.15
2018-10-21T03:11:07.588Z,14.55
2018-10-21T03:13:35.760Z,11.00
2018-10-21T03:16:04.327Z,10.82
2018-10-21T03:18:32.543Z,12.82
2018-10-21T03:21:01.431Z,14.78
2018-10-21T03:23:29.552Z,14.43
2018-10-21T03:25:57.833Z,12.88
2018-10-21T03:28:25.926Z,13.98
2018-10-21T03:30:54.027Z,12.00
2018-10-21T03:33:22.383Z,19.00
2018-10-21T03:35:50.256Z,12.07
2018-10-21T03:38:18.443Z,13.40
2018-10-21T03:40:46.583Z,12.63
2018-10-21T03:43:14.683Z,12.82
2018-10-21T03:45:42.770Z,15.20
2018-10-21T03:48:10.884Z,12.82
2018-10-21T03:50:38.983Z,12.35
2018-10-21T03:53:07.136Z,14.93
2018-10-21T03:55:37.655Z,12.03
2018-10-21T03:58:06.198Z,16.23
2018-10-21T04:00:34.553Z,14.23
2018-10-21T04:03:03.100Z,16.55
2018-10-21T04:05:31.254Z,14.45
2018-10-21T04:07:59.391Z,14.40
2018-10-21T04:10:27.492Z,16.42
2018-10-21T04:12:55.792Z,17.37
2018-10-21T04:15:23.966Z,14.85
2018-10-21T04:17:52.097Z,15.08
2018-10-21T04:20:20.384Z,14.60
2018-10-21T04:22:50.444Z,13.50
2018-10-21T04:25:18.809Z,16.73
2018-10-21T04:27:46.904Z,19.07
2018-10-21T04:30:18.760Z,14.07
2018-10-21T04:32:48.499Z,16.17
2018-10-21T04:35:17.041Z,17.87
2018-10-21T04:38:38.379Z,16.42
2018-10-21T04:41:06.559Z,24.07
2018-10-21T04:43:34.719Z,15.38
2018-10-21T04:46:02.833Z,14.23
2018-10-21T04:48:30.911Z,15.72
2018-10-21T04:50:59.020Z,12.13
2018-10-21T04:53:27.161Z,16.37
2018-10-21T04:55:55.261Z,17.85
2018-10-21T04:58:23.389Z,16.48
2018-10-21T05:00:51.759Z,15.38
2018-10-21T05:03:19.707Z,12.80
2018-10-21T05:05:47.909Z,18.00
2018-10-21T05:08:16.006Z,16.50
2018-10-21T05:10:44.103Z,19.92
2018-10-21T05:13:12.203Z,10.68
2018-10-21T05:15:40.655Z,12.68
2018-10-21T05:18:08.767Z,11.45
2018-10-21T05:20:36.899Z,14.60
2018-10-21T05:23:05.076Z,11.68
2018-10-21T05:25:33.186Z,15.40
2018-10-21T05:28:01.318Z,12.63
2018-10-21T05:30:29.397Z,14.55
2018-10-21T05:32:57.511Z,16.27
2018-10-21T05:35:25.639Z,14.38
2018-10-21T05:37:53.814Z,15.70
2018-10-21T05:40:22.732Z,17.85
2018-10-21T05:42:51.044Z,17.25
2018-10-21T05:45:19.132Z,18.02
2018-10-21T05:47:47.235Z,16.93
2018-10-21T05:50:16.034Z,16.85
2018-10-21T05:52:44.482Z,16.52
2018-10-21T05:55:13.255Z,16.30
2018-10-21T05:57:41.412Z,16.40
2018-10-21T06:00:14.658Z,16.02
2018-10-21T06:02:43.027Z,15.50
2018-10-21T06:05:22.394Z,13.55
2018-10-21T06:07:50.487Z,14.95
2018-10-21T06:10:18.745Z,17.25
2018-10-21T06:12:46.757Z,16.73
2018-10-21T06:15:14.847Z,17.07
2018-10-21T06:17:42.944Z,18.17
2018-10-21T06:20:18.821Z,14.75
2018-10-21T06:22:47.387Z,19.85
2018-10-21T06:25:15.508Z,20.65
2018-10-21T06:27:43.693Z,18.35
2018-10-21T06:30:12.520Z,20.48
2018-10-21T06:32:40.808Z,22.17
2018-10-21T06:35:09.769Z,16.90
2018-10-21T06:37:38.007Z,19.87
2018-10-21T06:40:07.704Z,17.80
2018-10-21T06:42:35.841Z,22.07
2018-10-21T06:45:04.009Z,16.75
2018-10-21T06:47:32.167Z,15.58
2018-10-21T06:50:00.289Z,18.90
2018-10-21T06:52:28.388Z,18.07
2018-10-21T06:54:56.474Z,17.73
2018-10-21T06:57:24.948Z,16.23
2018-10-21T06:59:52.888Z,17.70
2018-10-21T07:02:21.014Z,20.45
2018-10-21T07:04:49.172Z,16.65
2018-10-21T07:07:17.280Z,16.57
2018-10-21T07:09:45.375Z,15.08
2018-10-21T07:12:13.494Z,16.52
2018-10-21T07:14:41.597Z,16.20
2018-10-21T07:17:09.687Z,15.13
2018-10-21T07:19:37.787Z,19.07
2018-10-21T07:22:05.997Z,14.87
2018-10-21T07:24:34.031Z,20.35
2018-10-21T07:27:02.150Z,15.60
2018-10-21T07:29:30.246Z,17.67
2018-10-21T07:31:58.347Z,23.62
2018-10-21T07:34:26.439Z,26.25
2018-10-21T07:36:54.532Z,19.85
2018-10-21T07:39:22.631Z,23.20
2018-10-21T07:41:50.744Z,23.77
2018-10-21T07:44:18.839Z,20.35
2018-10-21T07:46:46.975Z,20.88
2018-10-21T07:49:15.144Z,17.75
2018-10-21T07:51:43.203Z,19.27
2018-10-21T07:54:11.315Z,18.95
2018-10-21T07:56:39.467Z,19.45
2018-10-21T07:59:07.605Z,15.70
2018-10-21T08:01:35.696Z,22.70
2018-10-21T08:04:03.814Z,17.65
2018-10-21T08:06:43.290Z,18.57
2018-10-21T08:09:12.066Z,22.75
2018-10-21T08:11:40.159Z,18.48
2018-10-21T08:14:08.266Z,18.20
2018-10-21T08:16:36.378Z,26.27
2018-10-21T08:19:04.566Z,14.07
2018-10-21T08:21:32.656Z,15.90
2018-10-21T08:24:00.750Z,25.40
2018-10-21T08:26:28.868Z,18.48
2018-10-21T08:28:56.975Z,16.05
2018-10-21T08:31:25.072Z,22.17
2018-10-21T08:33:53.204Z,15.10
2018-10-21T08:36:21.319Z,19.10
2018-10-21T08:38:49.468Z,16.95
2018-10-21T08:41:17.565Z,16.77
2018-10-21T08:43:45.763Z,16.12
2018-10-21T08:46:13.954Z,17.45
2018-10-21T08:48:42.144Z,16.87
2018-10-21T08:51:10.455Z,17.55
2018-10-21T08:53:38.562Z,18.92
2018-10-21T08:56:06.663Z,22.13
2018-10-21T08:58:34.787Z,16.00
2018-10-21T09:01:02.902Z,16.32
2018-10-21T09:03:31.019Z,18.37
2018-10-21T09:05:59.115Z,14.95
2018-10-21T09:08:27.259Z,15.13
2018-10-21T09:10:55.391Z,16.83
2018-10-21T09:13:23.476Z,17.23
2018-10-21T09:15:51.751Z,16.20
2018-10-21T09:18:19.871Z,16.40
2018-10-21T09:20:48.005Z,13.93
2018-10-21T09:23:16.119Z,14.35
2018-10-21T09:25:44.464Z,14.10
2018-10-21T09:28:12.685Z,17.10
2018-10-21T09:30:40.711Z,14.80
2018-10-21T09:33:08.876Z,13.65
2018-10-21T09:35:36.988Z,17.43
2018-10-21T09:38:05.472Z,15.60
2018-10-21T09:40:33.628Z,13.80
2018-10-21T09:43:01.793Z,17.47
2018-10-21T09:45:29.939Z,16.85
2018-10-21T09:47:58.155Z,14.73
2018-10-21T09:50:26.265Z,15.67
2018-10-21T09:52:54.374Z,19.50
2018-10-21T09:55:26.248Z,13.50
2018-10-21T09:57:54.425Z,13.80
2018-10-21T10:00:27.814Z,11.60
2018-10-21T10:03:01.335Z,14.10
2018-10-21T10:05:29.445Z,14.60
2018-10-21T10:07:57.572Z,15.53
2018-10-21T10:10:26.196Z,13.37
2018-10-21T10:12:54.355Z,12.73
2018-10-21T10:15:22.410Z,11.73
2018-10-21T10:17:50.531Z,14.30
2018-10-21T10:20:18.619Z,10.57
2018-10-21T10:22:46.716Z,10.67
2018-10-21T10:25:14.917Z,9.93
2018-10-21T10:27:42.972Z,9.80
2018-10-21T10:30:12.265Z,9.23
2018-10-21T10:32:41.696Z,13.77
2018-10-21T10:35:10.621Z,10.00
2018-10-21T10:37:38.755Z,7.17
2018-10-21T10:40:07.359Z,9.27
2018-10-21T10:42:35.433Z,11.40
2018-10-21T10:45:03.560Z,8.80
2018-10-21T10:47:31.736Z,9.07
2018-10-21T10:49:59.898Z,11.83
2018-10-21T10:52:28.009Z,9.13
2018-10-21T10:54:56.148Z,8.03
2018-10-21T10:57:24.313Z,8.80
2018-10-21T10:59:52.567Z,8.50
2018-10-21T11:02:20.529Z,6.63
2018-10-21T11:04:48.706Z,7.60
2018-10-21T11:07:17.023Z,9.53
2018-10-21T11:09:45.084Z,6.83
2018-10-21T11:12:13.179Z,5.70
2018-10-21T11:14:41.296Z,7.50
2018-10-21T11:17:09.384Z,7.90
2018-10-21T11:19:37.514Z,5.10
2018-10-21T11:22:05.793Z,5.20
2018-10-21T11:24:38.060Z,5.83
2018-10-21T11:27:06.959Z,8.97
2018-10-21T11:29:35.075Z,6.90
2018-10-21T11:32:03.175Z,5.03
2018-10-21T11:34:31.328Z,11.00
2018-10-21T11:36:59.445Z,8.80
2018-10-21T11:39:27.522Z,6.30
2018-10-21T11:41:55.648Z,4.83
2018-10-21T11:44:23.732Z,5.50
2018-10-21T11:46:52.004Z,6.73
2018-10-21T11:49:20.158Z,6.30
2018-10-21T11:51:48.260Z,5.67
2018-10-21T11:54:16.356Z,12.83
2018-10-21T11:56:44.603Z,9.33
2018-10-21T11:59:12.728Z,5.10
2018-10-21T12:01:40.825Z,5.27
2018-10-21T12:04:08.918Z,3.93
2018-10-21T12:06:37.029Z,5.03
2018-10-21T12:09:08.771Z,4.17
2018-10-21T12:11:36.871Z,4.23
2018-10-21T12:14:05.747Z,7.00
2018-10-21T12:16:33.867Z,8.60
2018-10-21T12:19:01.987Z,7.30
2018-10-21T12:21:30.166Z,4.70
2018-10-21T12:23:58.262Z,5.67
2018-10-21T12:26:26.464Z,7.20
2018-10-21T12:28:55.495Z,7.70
2018-10-21T12:31:25.093Z,4.93
2018-10-21T12:33:55.075Z,6.50
2018-10-21T12:36:24.840Z,6.83
2018-10-21T12:38:55.017Z,5.17
2018-10-21T12:41:24.299Z,9.60
2018-10-21T12:43:55.135Z,7.87
2018-10-21T12:46:26.630Z,6.20
2018-10-21T12:48:56.186Z,5.23
2018-10-21T12:51:26.486Z,4.97
2018-10-21T12:53:56.115Z,6.00
2018-10-21T12:56:25.977Z,5.93
2018-10-21T12:58:54.365Z,5.67
2018-10-21T13:01:26.023Z,4.10
2018-10-21T13:03:56.796Z,7.13
2018-10-21T13:06:26.224Z,6.60
2018-10-21T13:08:55.783Z,6.90
2018-10-21T13:11:27.291Z,4.10
2018-10-21T13:13:59.999Z,11.50
2018-10-21T13:16:29.289Z,4.63
2018-10-21T13:19:01.198Z,9.07
2018-10-21T13:21:31.923Z,7.27
2018-10-21T13:24:02.357Z,6.03
2018-10-21T13:26:34.894Z,6.73
2018-10-21T13:29:05.535Z,4.67
2018-10-21T13:31:35.129Z,5.33
2018-10-21T13:34:06.796Z,7.13
2018-10-21T13:36:39.409Z,4.43
2018-10-21T13:39:12.373Z,6.17
2018-10-21T13:44:23.076Z,4.33
2018-10-21T13:46:57.904Z,5.00
2018-10-21T13:49:29.338Z,7.13
2018-10-21T13:52:04.338Z,5.53
2018-10-21T13:54:35.343Z,4.13
2018-10-21T13:57:05.346Z,4.10
2018-10-21T13:59:36.646Z,4.63
2018-10-21T14:02:07.171Z,4.57
2018-10-21T14:04:38.339Z,5.43
2018-10-21T14:07:06.993Z,4.47
2018-10-21T14:09:40.172Z,7.90
2018-10-21T14:12:10.356Z,4.90
2018-10-21T14:14:39.898Z,4.80
2018-10-21T14:17:09.329Z,6.47
2018-10-21T14:19:39.431Z,3.70
2018-10-21T14:22:10.838Z,4.23
2018-10-21T14:24:40.210Z,7.13
2018-10-21T14:27:08.244Z,5.47
2018-10-21T14:29:36.426Z,5.20
2018-10-21T14:32:04.573Z,4.77
2018-10-21T14:34:32.677Z,6.43
2018-10-21T14:37:00.766Z,4.53
2018-10-21T14:39:28.914Z,4.73
2018-10-21T14:41:57.082Z,4.90
2018-10-21T14:44:25.263Z,5.07
2018-10-21T14:46:53.383Z,5.63
2018-10-21T14:49:21.488Z,6.93
2018-10-21T14:51:49.621Z,3.57
2018-10-21T14:54:17.844Z,4.37
2018-10-21T14:56:45.979Z,4.27
2018-10-21T14:59:14.141Z,8.40
2018-10-21T15:01:42.295Z,9.87
2018-10-21T15:04:10.473Z,9.43
2018-10-21T15:06:38.493Z,5.80
2018-10-21T15:09:10.024Z,6.83
2018-10-21T15:11:38.117Z,7.13
2018-10-21T15:14:06.259Z,4.20
2018-10-21T15:16:34.292Z,4.30
2018-10-21T15:19:02.481Z,9.33
2018-10-21T15:21:30.604Z,5.80
2018-10-21T15:23:58.728Z,5.17
2018-10-21T15:26:26.851Z,3.90
2018-10-21T15:28:55.056Z,3.97
2018-10-21T15:31:23.107Z,2.93
2018-10-21T15:33:51.232Z,6.50
2018-10-21T15:36:19.324Z,5.17
2018-10-21T15:38:47.516Z,4.47
2018-10-21T15:41:15.675Z,3.47
2018-10-21T15:43:43.813Z,4.60
2018-10-21T15:46:12.019Z,6.33
2018-10-21T15:48:40.050Z,8.40
2018-10-21T15:51:08.162Z,4.23
2018-10-21T15:53:36.243Z,6.33
2018-10-21T15:56:04.465Z,3.83
2018-10-21T15:58:32.521Z,4.30
2018-10-21T16:01:00.691Z,5.40
2018-10-21T16:03:28.815Z,4.93
2018-10-21T16:05:56.927Z,7.43
2018-10-21T16:08:25.059Z,3.17
2018-10-21T16:10:53.203Z,4.27
2018-10-21T16:13:21.335Z,7.40
2018-10-21T16:15:49.512Z,4.60
2018-10-21T16:18:17.559Z,5.70
2018-10-21T16:20:45.672Z,4.93
2018-10-21T16:23:13.755Z,6.30
2018-10-21T16:25:42.136Z,6.87
2018-10-21T16:28:10.122Z,5.20
2018-10-21T16:30:38.350Z,4.73
2018-10-21T16:33:06.362Z,4.63
2018-10-21T16:35:34.463Z,2.93
2018-10-21T16:38:02.551Z,3.67
2018-10-21T16:40:30.636Z,3.30
2018-10-21T16:42:58.735Z,4.10
2018-10-21T16:45:26.847Z,4.90
2018-10-21T16:47:54.982Z,5.53
2018-10-21T16:50:25.632Z,5.80
2018-10-21T16:52:56.238Z,4.50
2018-10-21T16:55:27.584Z,4.63
2018-10-21T16:57:56.762Z,6.70
2018-10-21T17:00:25.471Z,4.93
2018-10-21T17:02:54.578Z,4.43
2018-10-21T17:05:23.856Z,7.47
2018-10-21T17:07:52.411Z,9.80
2018-10-21T17:10:23.864Z,4.70
2018-10-21T17:12:53.840Z,6.20
2018-10-21T17:15:22.422Z,7.13
2018-10-21T17:17:51.399Z,5.43
2018-10-21T17:20:19.718Z,8.23
2018-10-21T17:22:54.998Z,6.87
2018-10-21T17:25:27.205Z,7.03
2018-10-21T17:27:58.481Z,6.00
2018-10-21T17:30:28.568Z,5.20
2018-10-21T17:32:56.692Z,6.33
2018-10-21T17:35:25.635Z,6.23
2018-10-21T17:37:56.309Z,6.93
2018-10-21T17:40:26.341Z,7.17
2018-10-21T17:42:55.633Z,3.33
2018-10-21T17:45:24.524Z,7.13
2018-10-21T17:47:52.769Z,13.03
2018-10-21T17:50:22.773Z,4.60
2018-10-21T17:52:52.344Z,6.70
2018-10-21T17:55:21.382Z,6.10
2018-10-21T17:57:50.208Z,6.10
2018-10-21T18:00:19.784Z,10.77
2018-10-21T18:02:47.986Z,9.53
2018-10-21T18:05:17.357Z,17.12
2018-10-21T18:07:46.364Z,13.80
2018-10-21T18:10:16.046Z,15.50
2018-10-21T18:12:45.414Z,16.30
2018-10-21T18:15:13.894Z,15.17
2018-10-21T18:17:50.535Z,14.67
2018-10-21T18:20:19.964Z,15.83
2018-10-21T18:22:51.773Z,10.30
2018-10-21T18:25:20.976Z,9.00
2018-10-21T18:27:50.816Z,5.90
2018-10-21T18:30:20.918Z,6.33
2018-10-21T18:32:49.237Z,7.40
2018-10-21T18:35:17.826Z,8.90
2018-10-21T18:37:46.112Z,5.60
2018-10-21T18:40:14.941Z,7.30
2018-10-21T18:42:44.068Z,6.20
2018-10-21T18:45:14.108Z,9.10
2018-10-21T18:47:42.984Z,7.15
2018-10-21T18:50:13.202Z,8.10
2018-10-21T18:52:42.081Z,7.40
2018-10-21T18:55:11.102Z,8.03
2018-10-21T18:57:39.429Z,6.03
2018-10-21T19:00:10.389Z,6.55
2018-10-21T19:02:39.556Z,8.77
2018-10-21T19:05:10.190Z,6.80
2018-10-21T19:07:40.200Z,7.67
2018-10-21T19:10:11.178Z,12.10
2018-10-21T19:12:39.344Z,10.23
2018-10-21T19:15:10.162Z,18.27
2018-10-21T19:17:40.988Z,28.33
2018-10-21T19:20:11.765Z,15.75
2018-10-21T19:22:40.610Z,15.88
2018-10-21T19:25:12.335Z,14.58
2018-10-21T19:27:40.527Z,13.83
2018-10-21T19:30:11.499Z,13.15
2018-10-21T19:32:40.341Z,9.73
2018-10-21T19:35:09.635Z,9.80
2018-10-21T19:37:53.618Z,11.88
2018-10-21T19:40:21.877Z,6.80
2018-10-21T19:42:50.206Z,7.55
2018-10-21T19:45:18.737Z,9.10
2018-10-21T19:47:47.316Z,6.70
2018-10-21T19:50:17.202Z,8.83
2018-10-21T19:52:46.248Z,6.80
2018-10-21T19:55:14.818Z,11.95
2018-10-21T19:57:43.666Z,13.80
2018-10-21T20:00:13.988Z,10.10
2018-10-21T20:02:42.525Z,10.30
2018-10-21T20:05:11.272Z,8.85
2018-10-21T20:07:41.745Z,9.95
2018-10-21T20:10:13.114Z,9.00
2018-10-21T20:12:44.452Z,7.27
2018-10-21T20:15:13.588Z,7.55
2018-10-21T20:17:45.586Z,7.30
2018-10-21T20:20:15.215Z,7.33
2018-10-21T20:22:43.555Z,9.38
2018-10-21T20:25:12.883Z,9.20
2018-10-21T20:27:43.364Z,7.22
2018-10-21T20:30:12.757Z,8.55
2018-10-21T20:32:41.096Z,9.05
2018-10-21T20:35:11.434Z,8.75
2018-10-21T20:37:39.799Z,8.63
2018-10-21T20:40:09.276Z,8.08
2018-10-21T20:42:37.489Z,9.23
2018-10-21T20:45:08.028Z,8.75
2018-10-21T20:47:37.070Z,8.03
2018-10-21T20:50:05.675Z,9.85
2018-10-21T20:52:34.083Z,9.18
2018-10-21T20:55:02.564Z,8.05
2018-10-21T20:57:31.078Z,8.98
2018-10-21T20:59:59.257Z,7.33
2018-10-21T21:02:28.274Z,9.65
2018-10-21T21:04:56.606Z,7.37
2018-10-21T21:07:25.512Z,9.10
2018-10-21T21:09:54.330Z,8.80
2018-10-21T21:12:23.314Z,7.97
2018-10-21T21:14:52.437Z,9.18
2018-10-21T21:17:20.721Z,10.40
2018-10-21T21:19:49.781Z,7.60
2018-10-21T21:22:18.877Z,8.50
2018-10-21T21:24:47.027Z,14.28
2018-10-21T21:27:15.512Z,8.13
2018-10-21T21:29:43.810Z,9.10
2018-10-21T21:32:12.063Z,9.98
2018-10-21T21:34:40.418Z,8.68
2018-10-21T21:37:10.789Z,14.50
2018-10-21T21:39:42.617Z,7.62
2018-10-21T21:42:11.087Z,9.08
2018-10-21T21:44:39.617Z,11.20
2018-10-21T21:47:07.987Z,8.37
2018-10-21T21:49:36.242Z,10.15
2018-10-21T21:52:04.673Z,13.05
2018-10-21T21:54:34.045Z,11.40
2018-10-21T21:57:06.238Z,10.60
2018-10-21T21:59:34.947Z,14.83
2018-10-21T22:02:03.410Z,8.15
2018-10-21T22:04:32.013Z,7.75
2018-10-21T22:07:02.682Z,9.58
2018-10-21T22:12:42.408Z,9.23
2018-10-21T22:15:10.848Z,14.70
2018-10-21T22:17:41.100Z,9.48
2018-10-21T22:20:09.369Z,10.68
2018-10-21T22:22:37.984Z,14.03
2018-10-21T22:25:16.179Z,7.78
2018-10-21T22:27:46.744Z,9.05
2018-10-21T22:30:15.569Z,16.62
2018-10-21T22:32:45.013Z,8.38
2018-10-21T22:35:13.357Z,8.28
2018-10-21T22:37:42.079Z,9.40
2018-10-21T22:40:11.719Z,8.40
2018-10-21T22:42:41.137Z,9.95
2018-10-21T22:45:11.742Z,10.35
2018-10-21T22:47:40.814Z,11.38
2018-10-21T22:50:10.660Z,13.35
2018-10-21T22:52:38.972Z,13.45
2018-10-21T22:55:08.214Z,16.70
2018-10-21T22:57:36.311Z,15.83
2018-10-21T23:00:06.965Z,10.20
2018-10-21T23:02:35.451Z,16.37
2018-10-21T23:05:04.419Z,15.38
2018-10-21T23:07:32.845Z,9.68
2018-10-21T23:10:01.792Z,13.18
2018-10-21T23:12:30.132Z,12.63
2018-10-21T23:14:58.392Z,8.45
2018-10-21T23:17:27.442Z,11.53
2018-10-21T23:19:55.775Z,10.95
2018-10-21T23:22:24.215Z,10.85
2018-10-21T23:24:55.011Z,16.55
2018-10-21T23:27:23.456Z,12.10
2018-10-21T23:29:51.844Z,13.35
2018-10-21T23:32:20.440Z,9.50
2018-10-21T23:34:48.797Z,11.28
2018-10-21T23:39:52.221Z,10.45
2018-10-21T23:42:20.589Z,13.20
2018-10-21T23:44:50.743Z,11.80
2018-10-21T23:47:18.985Z,10.63
2018-10-21T23:49:47.271Z,10.58
2018-10-21T23:52:16.740Z,10.65
2018-10-21T23:54:45.178Z,12.15
2018-10-21T23:57:13.389Z,9.33
2018-10-21T23:59:43.268Z,10.68
